sensor_id;sensor_type;location;lat;lon;timestamp;P1;durP1;ratioP1;P2;durP2;ratioP2
65717;SDS011;52445;52.466;-1.016;2022-07-26T00:00:08;5.65;;;2.50;;
65717;SDS011;52445;52.466;-1.016;2022-07-26T00:02:38;2.95;;;2.40;;
65717;SDS011;52445;52.466;-1.016;2022-07-26T00:05:14;5.53;;;1.58;;
65717;SDS011;52445;52.466;-1.016;2022-07-26T00:07:41;4.80;;;2.05;;
65717;SDS011;52445;52.466;-1.016;2022-07-26T00:10:08;4.47;;;2.03;;
65717;SDS011;52445;52.466;-1.016;2022-07-26T00:12:35;4.30;;;1.73;;
65717;SDS011;52445;52.466;-1.016;2022-07-26T00:15:03;2.20;;;1.30;;
65717;SDS011;52445;52.466;-1.016;2022-07-26T00:17:33;5.68;;;2.10;;
65717;SDS011;52445;52.466;-1.016;2022-07-26T00:19:59;5.00;;;1.90;;
65717;SDS011;52445;52.466;-1.016;2022-07-26T00:22:26;4.80;;;2.42;;
65717;SDS011;52445;52.466;-1.016;2022-07-26T00:25:02;3.08;;;1.58;;
65717;SDS011;52445;52.466;-1.016;2022-07-26T00:27:30;3.70;;;2.05;;
65717;SDS011;52445;52.466;-1.016;2022-07-26T00:29:57;2.83;;;2.03;;
65717;SDS011;52445;52.466;-1.016;2022-07-26T00:32:24;5.13;;;2.17;;
65717;SDS011;52445;52.466;-1.016;2022-07-26T00:34:51;5.70;;;2.00;;
65717;SDS011;52445;52.466;-1.016;2022-07-26T00:37:18;5.03;;;2.45;;
65717;SDS011;52445;52.466;-1.016;2022-07-26T00:39:46;4.18;;;1.80;;
65717;SDS011;52445;52.466;-1.016;2022-07-26T00:42:13;3.58;;;1.80;;
65717;SDS011;52445;52.466;-1.016;2022-07-26T00:44:41;2.92;;;1.95;;
65717;SDS011;52445;52.466;-1.016;2022-07-26T00:47:10;3.78;;;2.20;;
65717;SDS011;52445;52.466;-1.016;2022-07-26T00:49:37;6.63;;;2.15;;
65717;SDS011;52445;52.466;-1.016;2022-07-26T00:52:04;4.90;;;1.83;;
65717;SDS011;52445;52.466;-1.016;2022-07-26T00:54:32;4.03;;;2.17;;
65717;SDS011;52445;52.466;-1.016;2022-07-26T00:56:59;4.10;;;2.13;;
65717;SDS011;52445;52.466;-1.016;2022-07-26T00:59:26;3.42;;;2.13;;
65717;SDS011;52445;52.466;-1.016;2022-07-26T01:01:52;3.10;;;2.05;;
65717;SDS011;52445;52.466;-1.016;2022-07-26T01:04:19;5.38;;;2.30;;
65717;SDS011;52445;52.466;-1.016;2022-07-26T01:06:47;4.53;;;2.15;;
65717;SDS011;52445;52.466;-1.016;2022-07-26T01:09:15;3.83;;;2.30;;
65717;SDS011;52445;52.466;-1.016;2022-07-26T01:11:42;3.63;;;2.47;;
65717;SDS011;52445;52.466;-1.016;2022-07-26T01:14:08;4.07;;;2.15;;
65717;SDS011;52445;52.466;-1.016;2022-07-26T01:16:36;4.90;;;2.75;;
65717;SDS011;52445;52.466;-1.016;2022-07-26T01:19:03;3.72;;;2.72;;
65717;SDS011;52445;52.466;-1.016;2022-07-26T01:21:30;2.95;;;2.22;;
65717;SDS011;52445;52.466;-1.016;2022-07-26T01:23:57;4.32;;;2.17;;
65717;SDS011;52445;52.466;-1.016;2022-07-26T01:26:24;5.72;;;2.53;;
65717;SDS011;52445;52.466;-1.016;2022-07-26T01:28:51;3.92;;;2.58;;
65717;SDS011;52445;52.466;-1.016;2022-07-26T01:31:17;5.30;;;2.58;;
65717;SDS011;52445;52.466;-1.016;2022-07-26T01:33:44;5.22;;;2.55;;
65717;SDS011;52445;52.466;-1.016;2022-07-26T01:36:11;5.05;;;2.17;;
65717;SDS011;52445;52.466;-1.016;2022-07-26T01:38:38;5.28;;;2.38;;
65717;SDS011;52445;52.466;-1.016;2022-07-26T01:41:06;5.50;;;3.75;;
65717;SDS011;52445;52.466;-1.016;2022-07-26T01:43:33;5.10;;;2.67;;
65717;SDS011;52445;52.466;-1.016;2022-07-26T01:46:00;4.97;;;2.63;;
65717;SDS011;52445;52.466;-1.016;2022-07-26T01:48:27;4.93;;;2.42;;
65717;SDS011;52445;52.466;-1.016;2022-07-26T01:50:55;5.25;;;2.63;;
65717;SDS011;52445;52.466;-1.016;2022-07-26T01:53:22;5.93;;;2.20;;
65717;SDS011;52445;52.466;-1.016;2022-07-26T01:55:48;7.40;;;2.60;;
65717;SDS011;52445;52.466;-1.016;2022-07-26T01:58:15;6.70;;;2.47;;
65717;SDS011;52445;52.466;-1.016;2022-07-26T02:00:42;6.75;;;2.95;;
65717;SDS011;52445;52.466;-1.016;2022-07-26T02:03:09;5.13;;;3.45;;
65717;SDS011;52445;52.466;-1.016;2022-07-26T02:05:36;6.18;;;2.10;;
65717;SDS011;52445;52.466;-1.016;2022-07-26T02:08:03;4.30;;;2.63;;
65717;SDS011;52445;52.466;-1.016;2022-07-26T02:10:30;4.88;;;2.10;;
65717;SDS011;52445;52.466;-1.016;2022-07-26T02:13:16;6.30;;;2.83;;
65717;SDS011;52445;52.466;-1.016;2022-07-26T02:15:44;7.18;;;2.58;;
65717;SDS011;52445;52.466;-1.016;2022-07-26T02:18:10;5.57;;;2.85;;
65717;SDS011;52445;52.466;-1.016;2022-07-26T02:20:37;4.22;;;2.70;;
65717;SDS011;52445;52.466;-1.016;2022-07-26T02:23:04;4.53;;;2.33;;
65717;SDS011;52445;52.466;-1.016;2022-07-26T02:25:31;9.30;;;3.13;;
65717;SDS011;52445;52.466;-1.016;2022-07-26T02:27:58;4.55;;;3.20;;
65717;SDS011;52445;52.466;-1.016;2022-07-26T02:30:26;5.13;;;2.58;;
65717;SDS011;52445;52.466;-1.016;2022-07-26T02:32:53;6.47;;;2.55;;
65717;SDS011;52445;52.466;-1.016;2022-07-26T02:35:20;4.47;;;2.55;;
65717;SDS011;52445;52.466;-1.016;2022-07-26T02:37:47;8.00;;;2.42;;
65717;SDS011;52445;52.466;-1.016;2022-07-26T02:40:14;4.10;;;2.65;;
65717;SDS011;52445;52.466;-1.016;2022-07-26T02:42:44;3.75;;;1.63;;
65717;SDS011;52445;52.466;-1.016;2022-07-26T02:45:11;6.07;;;2.47;;
65717;SDS011;52445;52.466;-1.016;2022-07-26T02:47:46;6.30;;;3.15;;
65717;SDS011;52445;52.466;-1.016;2022-07-26T02:50:15;5.47;;;2.90;;
65717;SDS011;52445;52.466;-1.016;2022-07-26T02:52:43;5.85;;;2.33;;
65717;SDS011;52445;52.466;-1.016;2022-07-26T02:55:13;3.85;;;2.25;;
65717;SDS011;52445;52.466;-1.016;2022-07-26T02:57:41;6.13;;;2.92;;
65717;SDS011;52445;52.466;-1.016;2022-07-26T03:00:12;4.25;;;2.63;;
65717;SDS011;52445;52.466;-1.016;2022-07-26T03:05:08;4.45;;;2.15;;
65717;SDS011;52445;52.466;-1.016;2022-07-26T03:07:35;6.00;;;2.35;;
65717;SDS011;52445;52.466;-1.016;2022-07-26T03:10:03;4.78;;;2.67;;
65717;SDS011;52445;52.466;-1.016;2022-07-26T03:12:30;7.68;;;3.15;;
65717;SDS011;52445;52.466;-1.016;2022-07-26T03:14:57;7.82;;;2.72;;
65717;SDS011;52445;52.466;-1.016;2022-07-26T03:17:24;6.55;;;3.00;;
65717;SDS011;52445;52.466;-1.016;2022-07-26T03:19:50;6.40;;;2.28;;
65717;SDS011;52445;52.466;-1.016;2022-07-26T03:22:17;3.90;;;2.08;;
65717;SDS011;52445;52.466;-1.016;2022-07-26T03:24:44;3.83;;;2.45;;
65717;SDS011;52445;52.466;-1.016;2022-07-26T03:27:10;6.20;;;2.70;;
65717;SDS011;52445;52.466;-1.016;2022-07-26T03:29:37;6.68;;;2.72;;
65717;SDS011;52445;52.466;-1.016;2022-07-26T03:32:04;6.03;;;3.10;;
65717;SDS011;52445;52.466;-1.016;2022-07-26T03:34:31;4.78;;;2.83;;
65717;SDS011;52445;52.466;-1.016;2022-07-26T03:36:58;5.10;;;2.75;;
65717;SDS011;52445;52.466;-1.016;2022-07-26T03:39:24;5.75;;;2.47;;
65717;SDS011;52445;52.466;-1.016;2022-07-26T03:41:51;6.35;;;2.97;;
65717;SDS011;52445;52.466;-1.016;2022-07-26T03:44:18;4.15;;;1.63;;
65717;SDS011;52445;52.466;-1.016;2022-07-26T03:46:44;5.45;;;3.17;;
65717;SDS011;52445;52.466;-1.016;2022-07-26T03:49:11;6.40;;;2.90;;
65717;SDS011;52445;52.466;-1.016;2022-07-26T03:51:42;6.47;;;3.08;;
65717;SDS011;52445;52.466;-1.016;2022-07-26T03:54:09;6.07;;;3.42;;
65717;SDS011;52445;52.466;-1.016;2022-07-26T03:56:36;5.57;;;3.30;;
65717;SDS011;52445;52.466;-1.016;2022-07-26T03:59:04;4.72;;;2.47;;
65717;SDS011;52445;52.466;-1.016;2022-07-26T04:01:32;4.60;;;3.00;;
65717;SDS011;52445;52.466;-1.016;2022-07-26T04:04:01;5.57;;;3.13;;
65717;SDS011;52445;52.466;-1.016;2022-07-26T04:06:28;4.65;;;2.80;;
65717;SDS011;52445;52.466;-1.016;2022-07-26T04:08:55;5.30;;;3.03;;
65717;SDS011;52445;52.466;-1.016;2022-07-26T04:11:22;5.70;;;2.40;;
65717;SDS011;52445;52.466;-1.016;2022-07-26T04:13:53;4.55;;;2.70;;
65717;SDS011;52445;52.466;-1.016;2022-07-26T04:16:20;5.35;;;2.55;;
65717;SDS011;52445;52.466;-1.016;2022-07-26T04:18:47;4.53;;;3.65;;
65717;SDS011;52445;52.466;-1.016;2022-07-26T04:21:14;6.32;;;2.63;;
65717;SDS011;52445;52.466;-1.016;2022-07-26T04:23:41;3.90;;;2.00;;
65717;SDS011;52445;52.466;-1.016;2022-07-26T04:26:12;5.18;;;1.33;;
65717;SDS011;52445;52.466;-1.016;2022-07-26T04:28:40;7.22;;;2.10;;
65717;SDS011;52445;52.466;-1.016;2022-07-26T04:31:07;3.83;;;2.58;;
65717;SDS011;52445;52.466;-1.016;2022-07-26T04:33:34;6.28;;;2.15;;
65717;SDS011;52445;52.466;-1.016;2022-07-26T04:36:01;3.92;;;2.53;;
65717;SDS011;52445;52.466;-1.016;2022-07-26T04:38:28;6.50;;;2.38;;
65717;SDS011;52445;52.466;-1.016;2022-07-26T04:40:55;6.93;;;1.90;;
65717;SDS011;52445;52.466;-1.016;2022-07-26T04:43:23;5.95;;;2.88;;
65717;SDS011;52445;52.466;-1.016;2022-07-26T04:45:50;3.08;;;2.25;;
65717;SDS011;52445;52.466;-1.016;2022-07-26T04:48:17;6.38;;;3.00;;
65717;SDS011;52445;52.466;-1.016;2022-07-26T04:50:45;7.63;;;3.03;;
65717;SDS011;52445;52.466;-1.016;2022-07-26T04:53:11;6.97;;;3.05;;
65717;SDS011;52445;52.466;-1.016;2022-07-26T04:55:38;4.75;;;2.80;;
65717;SDS011;52445;52.466;-1.016;2022-07-26T04:58:05;4.78;;;3.05;;
65717;SDS011;52445;52.466;-1.016;2022-07-26T05:00:32;4.70;;;2.72;;
65717;SDS011;52445;52.466;-1.016;2022-07-26T05:03:11;8.13;;;2.97;;
65717;SDS011;52445;52.466;-1.016;2022-07-26T05:05:38;7.13;;;2.88;;
65717;SDS011;52445;52.466;-1.016;2022-07-26T05:08:05;3.95;;;3.20;;
65717;SDS011;52445;52.466;-1.016;2022-07-26T05:10:33;8.10;;;3.08;;
65717;SDS011;52445;52.466;-1.016;2022-07-26T05:13:01;5.15;;;2.47;;
65717;SDS011;52445;52.466;-1.016;2022-07-26T05:15:30;5.82;;;2.97;;
65717;SDS011;52445;52.466;-1.016;2022-07-26T05:18:01;9.05;;;2.58;;
65717;SDS011;52445;52.466;-1.016;2022-07-26T05:20:32;7.40;;;3.05;;
65717;SDS011;52445;52.466;-1.016;2022-07-26T05:22:59;7.35;;;3.70;;
65717;SDS011;52445;52.466;-1.016;2022-07-26T05:25:26;6.18;;;2.42;;
65717;SDS011;52445;52.466;-1.016;2022-07-26T05:27:52;3.60;;;2.65;;
65717;SDS011;52445;52.466;-1.016;2022-07-26T05:30:19;3.72;;;1.40;;
65717;SDS011;52445;52.466;-1.016;2022-07-26T05:32:46;5.07;;;2.88;;
65717;SDS011;52445;52.466;-1.016;2022-07-26T05:35:13;6.32;;;2.65;;
65717;SDS011;52445;52.466;-1.016;2022-07-26T05:37:39;4.68;;;2.00;;
65717;SDS011;52445;52.466;-1.016;2022-07-26T05:40:06;7.38;;;2.85;;
65717;SDS011;52445;52.466;-1.016;2022-07-26T05:42:33;5.45;;;2.17;;
65717;SDS011;52445;52.466;-1.016;2022-07-26T05:45:00;7.45;;;2.70;;
65717;SDS011;52445;52.466;-1.016;2022-07-26T05:47:28;6.30;;;2.28;;
65717;SDS011;52445;52.466;-1.016;2022-07-26T05:49:55;4.15;;;1.90;;
65717;SDS011;52445;52.466;-1.016;2022-07-26T05:52:22;5.80;;;2.35;;
65717;SDS011;52445;52.466;-1.016;2022-07-26T05:54:49;8.65;;;2.35;;
65717;SDS011;52445;52.466;-1.016;2022-07-26T05:57:15;6.28;;;1.90;;
65717;SDS011;52445;52.466;-1.016;2022-07-26T05:59:42;6.93;;;2.10;;
65717;SDS011;52445;52.466;-1.016;2022-07-26T06:02:08;4.13;;;1.75;;
65717;SDS011;52445;52.466;-1.016;2022-07-26T06:04:35;2.65;;;1.75;;
65717;SDS011;52445;52.466;-1.016;2022-07-26T06:07:02;4.90;;;1.63;;
65717;SDS011;52445;52.466;-1.016;2022-07-26T06:09:29;4.25;;;1.65;;
65717;SDS011;52445;52.466;-1.016;2022-07-26T06:11:55;6.25;;;2.00;;
65717;SDS011;52445;52.466;-1.016;2022-07-26T06:14:22;8.00;;;2.10;;
65717;SDS011;52445;52.466;-1.016;2022-07-26T06:16:49;6.97;;;1.88;;
65717;SDS011;52445;52.466;-1.016;2022-07-26T06:19:16;5.82;;;2.30;;
65717;SDS011;52445;52.466;-1.016;2022-07-26T06:21:43;6.22;;;1.85;;
65717;SDS011;52445;52.466;-1.016;2022-07-26T06:24:11;8.68;;;1.88;;
65717;SDS011;52445;52.466;-1.016;2022-07-26T06:26:39;8.15;;;1.83;;
65717;SDS011;52445;52.466;-1.016;2022-07-26T06:29:05;4.90;;;1.70;;
65717;SDS011;52445;52.466;-1.016;2022-07-26T06:31:32;3.72;;;1.77;;
65717;SDS011;52445;52.466;-1.016;2022-07-26T06:33:59;4.38;;;1.60;;
65717;SDS011;52445;52.466;-1.016;2022-07-26T06:36:25;7.60;;;1.95;;
65717;SDS011;52445;52.466;-1.016;2022-07-26T06:38:56;7.20;;;2.20;;
65717;SDS011;52445;52.466;-1.016;2022-07-26T06:41:23;6.10;;;2.03;;
65717;SDS011;52445;52.466;-1.016;2022-07-26T06:43:49;5.68;;;1.08;;
65717;SDS011;52445;52.466;-1.016;2022-07-26T06:46:16;6.82;;;1.67;;
65717;SDS011;52445;52.466;-1.016;2022-07-26T06:48:44;5.55;;;2.65;;
65717;SDS011;52445;52.466;-1.016;2022-07-26T06:51:12;4.63;;;2.45;;
65717;SDS011;52445;52.466;-1.016;2022-07-26T06:53:39;6.60;;;1.90;;
65717;SDS011;52445;52.466;-1.016;2022-07-26T06:56:06;4.43;;;2.13;;
65717;SDS011;52445;52.466;-1.016;2022-07-26T06:58:33;5.28;;;2.05;;
65717;SDS011;52445;52.466;-1.016;2022-07-26T07:01:00;4.63;;;1.60;;
65717;SDS011;52445;52.466;-1.016;2022-07-26T07:03:26;4.63;;;1.73;;
65717;SDS011;52445;52.466;-1.016;2022-07-26T07:05:53;4.70;;;2.05;;
65717;SDS011;52445;52.466;-1.016;2022-07-26T07:08:20;3.35;;;1.98;;
65717;SDS011;52445;52.466;-1.016;2022-07-26T07:10:48;6.55;;;1.20;;
65717;SDS011;52445;52.466;-1.016;2022-07-26T07:13:16;4.97;;;1.77;;
65717;SDS011;52445;52.466;-1.016;2022-07-26T07:15:43;5.63;;;2.10;;
65717;SDS011;52445;52.466;-1.016;2022-07-26T07:18:10;4.07;;;1.48;;
65717;SDS011;52445;52.466;-1.016;2022-07-26T07:20:37;5.35;;;1.23;;
65717;SDS011;52445;52.466;-1.016;2022-07-26T07:23:06;11.30;;;2.38;;
65717;SDS011;52445;52.466;-1.016;2022-07-26T07:25:33;3.70;;;2.00;;
65717;SDS011;52445;52.466;-1.016;2022-07-26T07:28:00;5.82;;;1.88;;
65717;SDS011;52445;52.466;-1.016;2022-07-26T07:30:27;7.00;;;1.83;;
65717;SDS011;52445;52.466;-1.016;2022-07-26T07:32:54;7.65;;;1.98;;
65717;SDS011;52445;52.466;-1.016;2022-07-26T07:35:22;8.48;;;2.70;;
65717;SDS011;52445;52.466;-1.016;2022-07-26T07:37:49;6.30;;;1.95;;
65717;SDS011;52445;52.466;-1.016;2022-07-26T07:40:18;3.63;;;1.73;;
65717;SDS011;52445;52.466;-1.016;2022-07-26T07:42:45;2.45;;;1.35;;
65717;SDS011;52445;52.466;-1.016;2022-07-26T07:45:11;4.65;;;2.33;;
65717;SDS011;52445;52.466;-1.016;2022-07-26T07:47:38;4.97;;;1.50;;
65717;SDS011;52445;52.466;-1.016;2022-07-26T07:50:05;4.22;;;1.05;;
65717;SDS011;52445;52.466;-1.016;2022-07-26T07:52:32;5.15;;;2.08;;
65717;SDS011;52445;52.466;-1.016;2022-07-26T07:54:58;9.55;;;1.63;;
65717;SDS011;52445;52.466;-1.016;2022-07-26T07:57:45;3.90;;;1.77;;
65717;SDS011;52445;52.466;-1.016;2022-07-26T08:00:12;2.95;;;1.85;;
65717;SDS011;52445;52.466;-1.016;2022-07-26T08:02:41;4.47;;;1.73;;
65717;SDS011;52445;52.466;-1.016;2022-07-26T08:05:08;5.97;;;1.58;;
65717;SDS011;52445;52.466;-1.016;2022-07-26T08:07:40;6.15;;;1.60;;
65717;SDS011;52445;52.466;-1.016;2022-07-26T08:10:08;5.60;;;2.03;;
65717;SDS011;52445;52.466;-1.016;2022-07-26T08:12:35;5.55;;;1.80;;
65717;SDS011;52445;52.466;-1.016;2022-07-26T08:15:02;1.55;;;1.45;;
65717;SDS011;52445;52.466;-1.016;2022-07-26T08:17:33;3.28;;;2.10;;
65717;SDS011;52445;52.466;-1.016;2022-07-26T08:20:07;3.78;;;1.35;;
65717;SDS011;52445;52.466;-1.016;2022-07-26T08:22:41;3.65;;;1.75;;
65717;SDS011;52445;52.466;-1.016;2022-07-26T08:25:07;3.22;;;1.67;;
65717;SDS011;52445;52.466;-1.016;2022-07-26T08:27:35;3.70;;;1.88;;
65717;SDS011;52445;52.466;-1.016;2022-07-26T08:30:06;2.05;;;1.30;;
65717;SDS011;52445;52.466;-1.016;2022-07-26T08:32:34;3.05;;;1.83;;
65717;SDS011;52445;52.466;-1.016;2022-07-26T08:35:01;5.22;;;2.08;;
65717;SDS011;52445;52.466;-1.016;2022-07-26T08:37:44;8.23;;;2.70;;
65717;SDS011;52445;52.466;-1.016;2022-07-26T08:40:11;3.08;;;1.45;;
65717;SDS011;52445;52.466;-1.016;2022-07-26T08:42:38;6.60;;;1.85;;
65717;SDS011;52445;52.466;-1.016;2022-07-26T08:45:05;4.15;;;1.73;;
65717;SDS011;52445;52.466;-1.016;2022-07-26T08:47:32;3.97;;;2.15;;
65717;SDS011;52445;52.466;-1.016;2022-07-26T08:50:05;4.45;;;1.65;;
65717;SDS011;52445;52.466;-1.016;2022-07-26T08:52:32;4.00;;;1.63;;
65717;SDS011;52445;52.466;-1.016;2022-07-26T08:55:00;2.15;;;1.88;;
65717;SDS011;52445;52.466;-1.016;2022-07-26T08:57:26;7.88;;;0.90;;
65717;SDS011;52445;52.466;-1.016;2022-07-26T09:02:51;3.92;;;0.88;;
65717;SDS011;52445;52.466;-1.016;2022-07-26T09:05:19;4.43;;;1.10;;
65717;SDS011;52445;52.466;-1.016;2022-07-26T09:07:51;6.07;;;0.90;;
65717;SDS011;52445;52.466;-1.016;2022-07-26T09:10:17;4.50;;;0.93;;
65717;SDS011;52445;52.466;-1.016;2022-07-26T09:12:44;5.20;;;0.90;;
65717;SDS011;52445;52.466;-1.016;2022-07-26T09:15:19;3.92;;;1.00;;
65717;SDS011;52445;52.466;-1.016;2022-07-26T09:17:49;3.13;;;0.82;;
65717;SDS011;52445;52.466;-1.016;2022-07-26T09:20:20;4.72;;;1.00;;
65717;SDS011;52445;52.466;-1.016;2022-07-26T09:23:12;5.07;;;0.68;;
65717;SDS011;52445;52.466;-1.016;2022-07-26T09:28:23;4.57;;;1.08;;
65717;SDS011;52445;52.466;-1.016;2022-07-26T09:30:53;2.58;;;0.43;;
65717;SDS011;52445;52.466;-1.016;2022-07-26T09:33:23;4.20;;;1.23;;
65717;SDS011;52445;52.466;-1.016;2022-07-26T09:36:00;3.50;;;0.70;;
65717;SDS011;52445;52.466;-1.016;2022-07-26T09:38:48;3.78;;;0.50;;
65717;SDS011;52445;52.466;-1.016;2022-07-26T09:41:21;2.22;;;0.80;;
65717;SDS011;52445;52.466;-1.016;2022-07-26T09:43:49;2.33;;;0.77;;
65717;SDS011;52445;52.466;-1.016;2022-07-26T09:46:19;4.45;;;0.80;;
65717;SDS011;52445;52.466;-1.016;2022-07-26T09:48:48;4.43;;;0.70;;
65717;SDS011;52445;52.466;-1.016;2022-07-26T09:51:36;5.85;;;0.98;;
65717;SDS011;52445;52.466;-1.016;2022-07-26T09:54:05;3.17;;;0.60;;
65717;SDS011;52445;52.466;-1.016;2022-07-26T09:56:50;3.67;;;1.40;;
65717;SDS011;52445;52.466;-1.016;2022-07-26T09:59:19;3.35;;;0.80;;
65717;SDS011;52445;52.466;-1.016;2022-07-26T10:01:48;5.70;;;1.20;;
65717;SDS011;52445;52.466;-1.016;2022-07-26T10:04:17;4.10;;;0.98;;
65717;SDS011;52445;52.466;-1.016;2022-07-26T10:06:44;4.00;;;0.70;;
65717;SDS011;52445;52.466;-1.016;2022-07-26T10:09:11;2.67;;;0.50;;
65717;SDS011;52445;52.466;-1.016;2022-07-26T10:11:41;5.03;;;0.77;;
65717;SDS011;52445;52.466;-1.016;2022-07-26T10:20:05;5.03;;;0.88;;
65717;SDS011;52445;52.466;-1.016;2022-07-26T10:22:43;2.95;;;0.70;;
65717;SDS011;52445;52.466;-1.016;2022-07-26T10:27:52;4.53;;;0.63;;
65717;SDS011;52445;52.466;-1.016;2022-07-26T10:38:12;5.13;;;1.98;;
65717;SDS011;52445;52.466;-1.016;2022-07-26T10:40:55;4.30;;;1.10;;
65717;SDS011;52445;52.466;-1.016;2022-07-26T10:43:23;3.83;;;1.15;;
65717;SDS011;52445;52.466;-1.016;2022-07-26T10:51:32;3.83;;;2.38;;
65717;SDS011;52445;52.466;-1.016;2022-07-26T10:54:03;6.53;;;1.88;;
65717;SDS011;52445;52.466;-1.016;2022-07-26T10:56:32;4.45;;;2.63;;
65717;SDS011;52445;52.466;-1.016;2022-07-26T10:59:00;2.97;;;2.22;;
65717;SDS011;52445;52.466;-1.016;2022-07-26T11:01:31;3.80;;;2.55;;
65717;SDS011;52445;52.466;-1.016;2022-07-26T11:03:59;5.35;;;2.22;;
65717;SDS011;52445;52.466;-1.016;2022-07-26T11:06:26;4.78;;;2.25;;
65717;SDS011;52445;52.466;-1.016;2022-07-26T11:08:55;3.80;;;2.13;;
65717;SDS011;52445;52.466;-1.016;2022-07-26T11:11:31;4.00;;;2.38;;
65717;SDS011;52445;52.466;-1.016;2022-07-26T11:14:14;3.63;;;2.13;;
65717;SDS011;52445;52.466;-1.016;2022-07-26T11:16:44;6.18;;;2.22;;
65717;SDS011;52445;52.466;-1.016;2022-07-26T11:19:14;3.30;;;1.48;;
65717;SDS011;52445;52.466;-1.016;2022-07-26T11:21:43;4.50;;;2.42;;
65717;SDS011;52445;52.466;-1.016;2022-07-26T11:24:11;5.70;;;2.80;;
65717;SDS011;52445;52.466;-1.016;2022-07-26T11:26:40;3.88;;;1.65;;
65717;SDS011;52445;52.466;-1.016;2022-07-26T11:29:08;3.15;;;1.92;;
65717;SDS011;52445;52.466;-1.016;2022-07-26T11:31:43;4.32;;;2.67;;
65717;SDS011;52445;52.466;-1.016;2022-07-26T11:36:52;3.92;;;2.28;;
65717;SDS011;52445;52.466;-1.016;2022-07-26T11:39:29;5.40;;;2.58;;
65717;SDS011;52445;52.466;-1.016;2022-07-26T11:44:35;2.75;;;1.00;;
65717;SDS011;52445;52.466;-1.016;2022-07-26T11:47:10;5.22;;;1.33;;
65717;SDS011;52445;52.466;-1.016;2022-07-26T11:49:38;4.95;;;1.30;;
65717;SDS011;52445;52.466;-1.016;2022-07-26T11:52:29;3.88;;;1.40;;
65717;SDS011;52445;52.466;-1.016;2022-07-26T11:54:57;3.20;;;1.20;;
65717;SDS011;52445;52.466;-1.016;2022-07-26T11:57:28;3.45;;;1.17;;
65717;SDS011;52445;52.466;-1.016;2022-07-26T11:59:57;4.30;;;1.23;;
65717;SDS011;52445;52.466;-1.016;2022-07-26T12:02:26;4.07;;;1.13;;
65717;SDS011;52445;52.466;-1.016;2022-07-26T12:08:00;2.15;;;0.70;;
65717;SDS011;52445;52.466;-1.016;2022-07-26T12:10:29;7.93;;;1.58;;
65717;SDS011;52445;52.466;-1.016;2022-07-26T12:13:13;4.03;;;1.65;;
65717;SDS011;52445;52.466;-1.016;2022-07-26T12:21:05;8.10;;;1.92;;
65717;SDS011;52445;52.466;-1.016;2022-07-26T12:23:42;6.93;;;2.33;;
65717;SDS011;52445;52.466;-1.016;2022-07-26T12:26:27;4.97;;;2.03;;
65717;SDS011;52445;52.466;-1.016;2022-07-26T12:28:56;4.78;;;3.63;;
65717;SDS011;52445;52.466;-1.016;2022-07-26T12:31:28;6.65;;;2.00;;
65717;SDS011;52445;52.466;-1.016;2022-07-26T12:33:56;5.05;;;1.40;;
65717;SDS011;52445;52.466;-1.016;2022-07-26T12:36:23;6.40;;;1.70;;
65717;SDS011;52445;52.466;-1.016;2022-07-26T12:38:54;4.20;;;1.75;;
65717;SDS011;52445;52.466;-1.016;2022-07-26T12:44:08;4.90;;;2.58;;
65717;SDS011;52445;52.466;-1.016;2022-07-26T12:46:38;5.47;;;1.70;;
65717;SDS011;52445;52.466;-1.016;2022-07-26T12:49:05;8.68;;;2.13;;
65717;SDS011;52445;52.466;-1.016;2022-07-26T12:51:32;6.85;;;2.08;;
65717;SDS011;52445;52.466;-1.016;2022-07-26T12:53:59;6.40;;;1.63;;
65717;SDS011;52445;52.466;-1.016;2022-07-26T12:56:25;5.57;;;2.00;;
65717;SDS011;52445;52.466;-1.016;2022-07-26T12:58:52;7.18;;;2.47;;
65717;SDS011;52445;52.466;-1.016;2022-07-26T13:01:19;4.22;;;1.60;;
65717;SDS011;52445;52.466;-1.016;2022-07-26T13:03:46;4.03;;;1.58;;
65717;SDS011;52445;52.466;-1.016;2022-07-26T13:06:13;4.15;;;1.65;;
65717;SDS011;52445;52.466;-1.016;2022-07-26T13:08:39;4.30;;;2.28;;
65717;SDS011;52445;52.466;-1.016;2022-07-26T13:11:06;4.07;;;1.77;;
65717;SDS011;52445;52.466;-1.016;2022-07-26T13:13:32;9.18;;;1.67;;
65717;SDS011;52445;52.466;-1.016;2022-07-26T13:15:59;7.20;;;1.75;;
65717;SDS011;52445;52.466;-1.016;2022-07-26T13:18:26;4.55;;;1.92;;
65717;SDS011;52445;52.466;-1.016;2022-07-26T13:20:52;6.43;;;2.58;;
65717;SDS011;52445;52.466;-1.016;2022-07-26T13:23:19;6.63;;;2.20;;
65717;SDS011;52445;52.466;-1.016;2022-07-26T13:25:51;4.88;;;1.58;;
65717;SDS011;52445;52.466;-1.016;2022-07-26T13:28:18;7.13;;;1.70;;
65717;SDS011;52445;52.466;-1.016;2022-07-26T13:30:44;3.75;;;1.83;;
65717;SDS011;52445;52.466;-1.016;2022-07-26T13:33:11;8.75;;;2.22;;
65717;SDS011;52445;52.466;-1.016;2022-07-26T13:35:38;5.00;;;1.95;;
65717;SDS011;52445;52.466;-1.016;2022-07-26T13:38:07;7.50;;;1.90;;
65717;SDS011;52445;52.466;-1.016;2022-07-26T13:40:35;7.82;;;2.00;;
65717;SDS011;52445;52.466;-1.016;2022-07-26T13:43:02;5.65;;;2.78;;
65717;SDS011;52445;52.466;-1.016;2022-07-26T13:45:30;3.55;;;2.20;;
65717;SDS011;52445;52.466;-1.016;2022-07-26T13:47:57;5.18;;;2.85;;
65717;SDS011;52445;52.466;-1.016;2022-07-26T13:50:25;5.32;;;2.05;;
65717;SDS011;52445;52.466;-1.016;2022-07-26T13:52:53;5.10;;;2.42;;
65717;SDS011;52445;52.466;-1.016;2022-07-26T13:55:21;4.13;;;2.03;;
65717;SDS011;52445;52.466;-1.016;2022-07-26T13:57:47;5.63;;;1.92;;
65717;SDS011;52445;52.466;-1.016;2022-07-26T14:00:22;4.63;;;1.75;;
65717;SDS011;52445;52.466;-1.016;2022-07-26T14:02:50;5.07;;;1.95;;
65717;SDS011;52445;52.466;-1.016;2022-07-26T14:05:17;4.47;;;2.08;;
65717;SDS011;52445;52.466;-1.016;2022-07-26T14:07:44;4.05;;;2.95;;
65717;SDS011;52445;52.466;-1.016;2022-07-26T14:10:10;5.22;;;1.70;;
65717;SDS011;52445;52.466;-1.016;2022-07-26T14:12:37;4.20;;;1.80;;
65717;SDS011;52445;52.466;-1.016;2022-07-26T14:15:04;4.32;;;1.98;;
65717;SDS011;52445;52.466;-1.016;2022-07-26T14:17:40;2.53;;;1.65;;
65717;SDS011;52445;52.466;-1.016;2022-07-26T14:20:08;6.63;;;1.85;;
65717;SDS011;52445;52.466;-1.016;2022-07-26T14:22:35;4.72;;;2.53;;
65717;SDS011;52445;52.466;-1.016;2022-07-26T14:25:23;5.40;;;2.03;;
65717;SDS011;52445;52.466;-1.016;2022-07-26T14:27:51;4.88;;;2.28;;
65717;SDS011;52445;52.466;-1.016;2022-07-26T14:30:19;5.88;;;2.30;;
65717;SDS011;52445;52.466;-1.016;2022-07-26T14:32:47;4.85;;;2.05;;
65717;SDS011;52445;52.466;-1.016;2022-07-26T14:35:13;3.42;;;2.10;;
65717;SDS011;52445;52.466;-1.016;2022-07-26T14:37:42;4.93;;;2.33;;
65717;SDS011;52445;52.466;-1.016;2022-07-26T14:40:11;3.22;;;1.92;;
65717;SDS011;52445;52.466;-1.016;2022-07-26T14:42:39;4.20;;;2.00;;
65717;SDS011;52445;52.466;-1.016;2022-07-26T14:45:07;4.32;;;2.03;;
65717;SDS011;52445;52.466;-1.016;2022-07-26T14:47:34;4.50;;;1.98;;
65717;SDS011;52445;52.466;-1.016;2022-07-26T14:50:02;4.15;;;2.33;;
65717;SDS011;52445;52.466;-1.016;2022-07-26T14:52:32;4.38;;;2.08;;
65717;SDS011;52445;52.466;-1.016;2022-07-26T14:55:02;3.47;;;1.90;;
65717;SDS011;52445;52.466;-1.016;2022-07-26T14:57:29;3.67;;;1.85;;
65717;SDS011;52445;52.466;-1.016;2022-07-26T14:59:55;5.07;;;2.13;;
65717;SDS011;52445;52.466;-1.016;2022-07-26T15:02:22;4.20;;;1.70;;
65717;SDS011;52445;52.466;-1.016;2022-07-26T15:04:49;4.47;;;1.80;;
65717;SDS011;52445;52.466;-1.016;2022-07-26T15:07:16;4.00;;;1.90;;
65717;SDS011;52445;52.466;-1.016;2022-07-26T15:09:42;3.05;;;1.83;;
65717;SDS011;52445;52.466;-1.016;2022-07-26T15:12:09;4.65;;;1.85;;
65717;SDS011;52445;52.466;-1.016;2022-07-26T15:14:36;4.32;;;1.50;;
65717;SDS011;52445;52.466;-1.016;2022-07-26T15:17:02;2.35;;;1.48;;
65717;SDS011;52445;52.466;-1.016;2022-07-26T15:19:29;3.20;;;1.33;;
65717;SDS011;52445;52.466;-1.016;2022-07-26T15:21:56;2.80;;;1.65;;
65717;SDS011;52445;52.466;-1.016;2022-07-26T15:24:24;4.07;;;1.50;;
65717;SDS011;52445;52.466;-1.016;2022-07-26T15:26:52;3.85;;;1.63;;